sensor_id;sensor_type;location;lat;lon;timestamp;P1;durP1;ratioP1;P2;durP2;ratioP2
17510;SDS011;8873;48.818;9.422;2022-08-01T00:00:38;2.50;;;2.30;;
17510;SDS011;8873;48.818;9.422;2022-08-01T00:03:06;4.30;;;2.58;;
17510;SDS011;8873;48.818;9.422;2022-08-01T00:05:34;5.53;;;2.53;;
17510;SDS011;8873;48.818;9.422;2022-08-01T00:08:01;6.63;;;2.53;;
17510;SDS011;8873;48.818;9.422;2022-08-01T00:10:29;5.80;;;3.13;;
17510;SDS011;8873;48.818;9.422;2022-08-01T00:12:56;5.20;;;3.17;;
17510;SDS011;8873;48.818;9.422;2022-08-01T00:15:24;5.88;;;3.10;;
17510;SDS011;8873;48.818;9.422;2022-08-01T00:17:53;3.38;;;2.92;;
17510;SDS011;8873;48.818;9.422;2022-08-01T00:20:21;3.45;;;2.97;;
17510;SDS011;8873;48.818;9.422;2022-08-01T00:22:48;4.07;;;2.75;;
17510;SDS011;8873;48.818;9.422;2022-08-01T00:25:16;3.65;;;3.33;;
17510;SDS011;8873;48.818;9.422;2022-08-01T00:27:44;5.95;;;3.33;;
17510;SDS011;8873;48.818;9.422;2022-08-01T00:30:12;3.30;;;3.00;;
17510;SDS011;8873;48.818;9.422;2022-08-01T00:32:40;5.13;;;2.85;;
17510;SDS011;8873;48.818;9.422;2022-08-01T00:35:09;2.78;;;2.58;;
17510;SDS011;8873;48.818;9.422;2022-08-01T00:37:37;3.30;;;3.00;;
17510;SDS011;8873;48.818;9.422;2022-08-01T00:40:05;5.35;;;3.20;;
17510;SDS011;8873;48.818;9.422;2022-08-01T00:42:33;3.20;;;2.90;;
17510;SDS011;8873;48.818;9.422;2022-08-01T00:45:06;3.17;;;2.97;;
17510;SDS011;8873;48.818;9.422;2022-08-01T00:47:33;3.78;;;3.00;;
17510;SDS011;8873;48.818;9.422;2022-08-01T00:50:02;5.80;;;2.90;;
17510;SDS011;8873;48.818;9.422;2022-08-01T00:52:32;3.22;;;2.72;;
17510;SDS011;8873;48.818;9.422;2022-08-01T00:54:59;2.80;;;2.60;;
17510;SDS011;8873;48.818;9.422;2022-08-01T00:57:30;6.85;;;2.75;;
17510;SDS011;8873;48.818;9.422;2022-08-01T01:00:17;2.92;;;2.72;;
17510;SDS011;8873;48.818;9.422;2022-08-01T01:02:52;3.80;;;3.30;;
17510;SDS011;8873;48.818;9.422;2022-08-01T01:05:20;3.28;;;2.90;;
17510;SDS011;8873;48.818;9.422;2022-08-01T01:07:53;4.63;;;2.92;;
17510;SDS011;8873;48.818;9.422;2022-08-01T01:10:24;2.90;;;2.50;;
17510;SDS011;8873;48.818;9.422;2022-08-01T01:12:54;3.22;;;2.90;;
17510;SDS011;8873;48.818;9.422;2022-08-01T01:15:24;4.43;;;2.85;;
17510;SDS011;8873;48.818;9.422;2022-08-01T01:17:55;4.47;;;3.03;;
17510;SDS011;8873;48.818;9.422;2022-08-01T01:20:25;5.20;;;2.83;;
17510;SDS011;8873;48.818;9.422;2022-08-01T01:22:59;3.78;;;2.92;;
17510;SDS011;8873;48.818;9.422;2022-08-01T01:25:39;3.10;;;2.88;;
17510;SDS011;8873;48.818;9.422;2022-08-01T01:28:09;5.35;;;3.00;;
17510;SDS011;8873;48.818;9.422;2022-08-01T01:30:41;3.63;;;3.03;;
17510;SDS011;8873;48.818;9.422;2022-08-01T01:33:10;3.13;;;2.88;;
17510;SDS011;8873;48.818;9.422;2022-08-01T01:35:40;3.50;;;3.17;;
17510;SDS011;8873;48.818;9.422;2022-08-01T01:38:10;3.60;;;3.30;;
17510;SDS011;8873;48.818;9.422;2022-08-01T01:40:38;3.47;;;3.20;;
17510;SDS011;8873;48.818;9.422;2022-08-01T01:43:06;3.50;;;3.17;;
17510;SDS011;8873;48.818;9.422;2022-08-01T01:45:36;3.25;;;2.95;;
17510;SDS011;8873;48.818;9.422;2022-08-01T01:48:05;4.32;;;3.13;;
17510;SDS011;8873;48.818;9.422;2022-08-01T01:50:33;3.65;;;3.33;;
17510;SDS011;8873;48.818;9.422;2022-08-01T01:53:02;6.38;;;3.42;;
17510;SDS011;8873;48.818;9.422;2022-08-01T01:55:31;4.47;;;3.30;;
17510;SDS011;8873;48.818;9.422;2022-08-01T01:58:15;4.82;;;2.95;;
17510;SDS011;8873;48.818;9.422;2022-08-01T02:00:43;3.47;;;3.00;;
17510;SDS011;8873;48.818;9.422;2022-08-01T02:03:13;3.20;;;3.00;;
17510;SDS011;8873;48.818;9.422;2022-08-01T02:05:42;3.13;;;2.83;;
17510;SDS011;8873;48.818;9.422;2022-08-01T02:08:10;3.30;;;3.10;;
17510;SDS011;8873;48.818;9.422;2022-08-01T02:10:39;3.25;;;2.95;;
17510;SDS011;8873;48.818;9.422;2022-08-01T02:13:07;3.40;;;3.10;;
17510;SDS011;8873;48.818;9.422;2022-08-01T02:15:37;4.60;;;3.40;;
17510;SDS011;8873;48.818;9.422;2022-08-01T02:18:26;4.50;;;2.78;;
17510;SDS011;8873;48.818;9.422;2022-08-01T02:20:54;5.68;;;3.38;;
17510;SDS011;8873;48.818;9.422;2022-08-01T02:23:26;5.75;;;3.40;;
17510;SDS011;8873;48.818;9.422;2022-08-01T02:25:55;3.42;;;3.13;;
17510;SDS011;8873;48.818;9.422;2022-08-01T02:28:38;4.70;;;3.05;;
17510;SDS011;8873;48.818;9.422;2022-08-01T02:31:10;4.80;;;2.97;;
17510;SDS011;8873;48.818;9.422;2022-08-01T02:33:43;3.95;;;3.10;;
17510;SDS011;8873;48.818;9.422;2022-08-01T02:36:11;4.35;;;3.78;;
17510;SDS011;8873;48.818;9.422;2022-08-01T02:38:58;4.13;;;3.00;;
17510;SDS011;8873;48.818;9.422;2022-08-01T02:41:26;3.50;;;3.20;;
17510;SDS011;8873;48.818;9.422;2022-08-01T02:43:56;4.50;;;3.17;;
17510;SDS011;8873;48.818;9.422;2022-08-01T02:46:26;5.68;;;3.30;;
17510;SDS011;8873;48.818;9.422;2022-08-01T02:48:56;5.50;;;3.72;;
17510;SDS011;8873;48.818;9.422;2022-08-01T02:51:25;4.53;;;3.78;;
17510;SDS011;8873;48.818;9.422;2022-08-01T02:53:54;5.38;;;3.92;;
17510;SDS011;8873;48.818;9.422;2022-08-01T02:56:22;4.18;;;3.67;;
17510;SDS011;8873;48.818;9.422;2022-08-01T02:59:01;4.03;;;3.28;;
17510;SDS011;8873;48.818;9.422;2022-08-01T03:01:30;5.00;;;3.08;;
17510;SDS011;8873;48.818;9.422;2022-08-01T03:04:00;4.00;;;3.60;;
17510;SDS011;8873;48.818;9.422;2022-08-01T03:06:28;6.72;;;3.28;;
17510;SDS011;8873;48.818;9.422;2022-08-01T03:08:55;5.60;;;3.53;;
17510;SDS011;8873;48.818;9.422;2022-08-01T03:11:23;4.80;;;3.60;;
17510;SDS011;8873;48.818;9.422;2022-08-01T03:13:52;5.22;;;3.72;;
17510;SDS011;8873;48.818;9.422;2022-08-01T03:16:21;6.68;;;3.92;;
17510;SDS011;8873;48.818;9.422;2022-08-01T03:18:50;3.90;;;3.53;;
17510;SDS011;8873;48.818;9.422;2022-08-01T03:21:20;4.03;;;3.63;;
17510;SDS011;8873;48.818;9.422;2022-08-01T03:23:51;5.43;;;3.50;;
17510;SDS011;8873;48.818;9.422;2022-08-01T03:26:24;4.93;;;3.40;;
17510;SDS011;8873;48.818;9.422;2022-08-01T03:28:52;5.63;;;3.95;;
17510;SDS011;8873;48.818;9.422;2022-08-01T03:31:22;4.78;;;3.80;;
17510;SDS011;8873;48.818;9.422;2022-08-01T03:33:51;4.90;;;3.38;;
17510;SDS011;8873;48.818;9.422;2022-08-01T03:36:21;4.13;;;3.55;;
17510;SDS011;8873;48.818;9.422;2022-08-01T03:38:50;6.82;;;3.97;;
17510;SDS011;8873;48.818;9.422;2022-08-01T03:41:19;8.60;;;3.60;;
17510;SDS011;8873;48.818;9.422;2022-08-01T03:43:49;4.05;;;3.72;;
17510;SDS011;8873;48.818;9.422;2022-08-01T03:46:20;7.18;;;3.72;;
17510;SDS011;8873;48.818;9.422;2022-08-01T03:48:50;4.47;;;3.58;;
17510;SDS011;8873;48.818;9.422;2022-08-01T03:51:21;6.80;;;3.55;;
17510;SDS011;8873;48.818;9.422;2022-08-01T03:53:50;4.30;;;3.90;;
17510;SDS011;8873;48.818;9.422;2022-08-01T03:56:18;4.38;;;3.97;;
17510;SDS011;8873;48.818;9.422;2022-08-01T03:58:47;4.68;;;3.72;;
17510;SDS011;8873;48.818;9.422;2022-08-01T04:01:15;4.22;;;3.72;;
17510;SDS011;8873;48.818;9.422;2022-08-01T04:03:43;6.60;;;4.28;;
17510;SDS011;8873;48.818;9.422;2022-08-01T04:06:11;5.00;;;4.03;;
17510;SDS011;8873;48.818;9.422;2022-08-01T04:08:41;4.35;;;3.92;;
17510;SDS011;8873;48.818;9.422;2022-08-01T04:11:09;4.85;;;4.15;;
17510;SDS011;8873;48.818;9.422;2022-08-01T04:13:37;8.48;;;3.95;;
17510;SDS011;8873;48.818;9.422;2022-08-01T04:16:04;6.63;;;3.75;;
17510;SDS011;8873;48.818;9.422;2022-08-01T04:18:32;4.65;;;4.13;;
17510;SDS011;8873;48.818;9.422;2022-08-01T04:21:00;5.85;;;4.55;;
17510;SDS011;8873;48.818;9.422;2022-08-01T04:23:27;6.97;;;4.45;;
17510;SDS011;8873;48.818;9.422;2022-08-01T04:25:59;8.18;;;4.80;;
17510;SDS011;8873;48.818;9.422;2022-08-01T04:28:30;7.18;;;4.60;;
17510;SDS011;8873;48.818;9.422;2022-08-01T04:30:58;5.93;;;4.25;;
17510;SDS011;8873;48.818;9.422;2022-08-01T04:33:27;6.40;;;4.20;;
17510;SDS011;8873;48.818;9.422;2022-08-01T04:35:56;7.28;;;3.65;;
17510;SDS011;8873;48.818;9.422;2022-08-01T04:38:29;4.40;;;3.97;;
17510;SDS011;8873;48.818;9.422;2022-08-01T04:40:59;5.93;;;3.92;;
17510;SDS011;8873;48.818;9.422;2022-08-01T04:43:35;8.20;;;4.25;;
17510;SDS011;8873;48.818;9.422;2022-08-01T04:46:03;4.93;;;4.00;;
17510;SDS011;8873;48.818;9.422;2022-08-01T04:48:32;6.45;;;3.70;;
17510;SDS011;8873;48.818;9.422;2022-08-01T04:51:00;5.63;;;4.38;;
17510;SDS011;8873;48.818;9.422;2022-08-01T04:53:27;5.35;;;4.05;;
17510;SDS011;8873;48.818;9.422;2022-08-01T04:55:55;7.63;;;4.03;;
17510;SDS011;8873;48.818;9.422;2022-08-01T04:58:24;4.18;;;3.88;;
17510;SDS011;8873;48.818;9.422;2022-08-01T05:00:52;5.38;;;3.72;;
17510;SDS011;8873;48.818;9.422;2022-08-01T05:03:20;5.47;;;4.35;;
17510;SDS011;8873;48.818;9.422;2022-08-01T05:05:48;5.60;;;3.97;;
17510;SDS011;8873;48.818;9.422;2022-08-01T05:08:15;6.00;;;4.47;;
17510;SDS011;8873;48.818;9.422;2022-08-01T05:10:43;5.10;;;4.18;;
17510;SDS011;8873;48.818;9.422;2022-08-01T05:13:11;4.60;;;4.20;;
17510;SDS011;8873;48.818;9.422;2022-08-01T05:15:40;5.82;;;3.90;;
17510;SDS011;8873;48.818;9.422;2022-08-01T05:18:07;6.15;;;4.43;;
17510;SDS011;8873;48.818;9.422;2022-08-01T05:20:35;5.38;;;4.38;;
17510;SDS011;8873;48.818;9.422;2022-08-01T05:23:04;5.70;;;4.07;;
17510;SDS011;8873;48.818;9.422;2022-08-01T05:25:41;4.22;;;3.80;;
17510;SDS011;8873;48.818;9.422;2022-08-01T05:28:23;5.35;;;4.20;;
17510;SDS011;8873;48.818;9.422;2022-08-01T05:30:52;6.60;;;4.80;;
17510;SDS011;8873;48.818;9.422;2022-08-01T05:33:21;6.95;;;3.97;;
17510;SDS011;8873;48.818;9.422;2022-08-01T05:35:49;6.15;;;3.90;;
17510;SDS011;8873;48.818;9.422;2022-08-01T05:38:17;4.57;;;4.18;;
17510;SDS011;8873;48.818;9.422;2022-08-01T05:40:45;5.10;;;4.10;;
17510;SDS011;8873;48.818;9.422;2022-08-01T05:43:12;5.28;;;4.30;;
17510;SDS011;8873;48.818;9.422;2022-08-01T05:45:40;9.02;;;5.13;;
17510;SDS011;8873;48.818;9.422;2022-08-01T05:48:09;5.68;;;4.07;;
17510;SDS011;8873;48.818;9.422;2022-08-01T05:50:37;4.68;;;4.10;;
17510;SDS011;8873;48.818;9.422;2022-08-01T05:53:04;6.47;;;4.40;;
17510;SDS011;8873;48.818;9.422;2022-08-01T05:55:32;4.70;;;4.00;;
17510;SDS011;8873;48.818;9.422;2022-08-01T05:57:59;5.57;;;4.03;;
17510;SDS011;8873;48.818;9.422;2022-08-01T06:00:27;7.97;;;4.50;;
17510;SDS011;8873;48.818;9.422;2022-08-01T06:02:55;5.78;;;4.20;;
17510;SDS011;8873;48.818;9.422;2022-08-01T06:05:24;8.10;;;4.13;;
17510;SDS011;8873;48.818;9.422;2022-08-01T06:07:52;6.20;;;4.00;;
17510;SDS011;8873;48.818;9.422;2022-08-01T06:10:19;4.78;;;3.80;;
17510;SDS011;8873;48.818;9.422;2022-08-01T06:12:47;4.97;;;3.95;;
17510;SDS011;8873;48.818;9.422;2022-08-01T06:15:15;8.45;;;3.95;;
17510;SDS011;8873;48.818;9.422;2022-08-01T06:17:42;8.88;;;3.72;;
17510;SDS011;8873;48.818;9.422;2022-08-01T06:20:10;4.35;;;3.78;;
17510;SDS011;8873;48.818;9.422;2022-08-01T06:22:40;4.10;;;3.67;;
17510;SDS011;8873;48.818;9.422;2022-08-01T06:25:08;8.93;;;3.50;;
17510;SDS011;8873;48.818;9.422;2022-08-01T06:27:36;5.25;;;3.90;;
17510;SDS011;8873;48.818;9.422;2022-08-01T06:30:04;5.13;;;3.20;;
17510;SDS011;8873;48.818;9.422;2022-08-01T06:32:33;5.72;;;3.92;;
17510;SDS011;8873;48.818;9.422;2022-08-01T06:35:01;9.02;;;3.20;;
17510;SDS011;8873;48.818;9.422;2022-08-01T06:37:29;3.75;;;3.00;;
17510;SDS011;8873;48.818;9.422;2022-08-01T06:40:01;3.53;;;3.10;;
17510;SDS011;8873;48.818;9.422;2022-08-01T06:42:29;2.97;;;2.55;;
17510;SDS011;8873;48.818;9.422;2022-08-01T06:45:01;2.90;;;2.70;;
17510;SDS011;8873;48.818;9.422;2022-08-01T06:47:29;4.28;;;2.80;;
17510;SDS011;8873;48.818;9.422;2022-08-01T06:49:57;3.70;;;2.88;;
17510;SDS011;8873;48.818;9.422;2022-08-01T06:52:25;5.00;;;3.00;;
17510;SDS011;8873;48.818;9.422;2022-08-01T06:54:53;3.70;;;2.30;;
17510;SDS011;8873;48.818;9.422;2022-08-01T06:57:22;2.97;;;2.42;;
17510;SDS011;8873;48.818;9.422;2022-08-01T06:59:50;4.93;;;2.50;;
17510;SDS011;8873;48.818;9.422;2022-08-01T07:02:20;3.38;;;2.67;;
17510;SDS011;8873;48.818;9.422;2022-08-01T07:04:48;4.15;;;2.50;;
17510;SDS011;8873;48.818;9.422;2022-08-01T07:07:16;5.18;;;2.58;;
17510;SDS011;8873;48.818;9.422;2022-08-01T07:09:43;2.67;;;2.40;;
17510;SDS011;8873;48.818;9.422;2022-08-01T07:12:11;1.92;;;1.83;;
17510;SDS011;8873;48.818;9.422;2022-08-01T07:14:40;2.10;;;2.00;;
17510;SDS011;8873;48.818;9.422;2022-08-01T07:17:08;1.85;;;1.70;;
17510;SDS011;8873;48.818;9.422;2022-08-01T07:19:36;2.83;;;2.10;;
17510;SDS011;8873;48.818;9.422;2022-08-01T07:22:04;3.28;;;1.83;;
17510;SDS011;8873;48.818;9.422;2022-08-01T07:24:32;2.22;;;2.00;;
17510;SDS011;8873;48.818;9.422;2022-08-01T07:27:01;1.98;;;1.80;;
17510;SDS011;8873;48.818;9.422;2022-08-01T07:29:50;1.73;;;1.63;;
17510;SDS011;8873;48.818;9.422;2022-08-01T07:32:19;3.03;;;1.77;;
17510;SDS011;8873;48.818;9.422;2022-08-01T07:34:48;2.33;;;1.83;;
17510;SDS011;8873;48.818;9.422;2022-08-01T07:37:15;2.80;;;2.05;;
17510;SDS011;8873;48.818;9.422;2022-08-01T07:40:03;3.58;;;1.90;;
17510;SDS011;8873;48.818;9.422;2022-08-01T07:42:31;1.90;;;1.80;;
17510;SDS011;8873;48.818;9.422;2022-08-01T07:45:01;2.97;;;1.80;;
17510;SDS011;8873;48.818;9.422;2022-08-01T07:47:29;2.58;;;2.20;;
17510;SDS011;8873;48.818;9.422;2022-08-01T07:50:00;1.90;;;1.80;;
17510;SDS011;8873;48.818;9.422;2022-08-01T07:52:28;5.07;;;1.92;;
17510;SDS011;8873;48.818;9.422;2022-08-01T07:54:56;2.30;;;1.98;;
17510;SDS011;8873;48.818;9.422;2022-08-01T07:57:24;2.25;;;2.03;;
17510;SDS011;8873;48.818;9.422;2022-08-01T07:59:52;1.90;;;1.80;;
17510;SDS011;8873;48.818;9.422;2022-08-01T08:02:22;6.43;;;2.13;;
17510;SDS011;8873;48.818;9.422;2022-08-01T08:04:50;2.28;;;1.80;;
17510;SDS011;8873;48.818;9.422;2022-08-01T08:07:18;2.00;;;1.80;;
17510;SDS011;8873;48.818;9.422;2022-08-01T08:09:45;1.98;;;1.67;;
17510;SDS011;8873;48.818;9.422;2022-08-01T08:12:16;2.40;;;1.80;;
17510;SDS011;8873;48.818;9.422;2022-08-01T08:14:56;2.20;;;1.80;;
17510;SDS011;8873;48.818;9.422;2022-08-01T08:17:37;2.05;;;1.83;;
17510;SDS011;8873;48.818;9.422;2022-08-01T08:20:06;2.08;;;1.88;;
17510;SDS011;8873;48.818;9.422;2022-08-01T08:22:35;4.82;;;1.95;;
17510;SDS011;8873;48.818;9.422;2022-08-01T08:25:02;2.30;;;1.95;;
17510;SDS011;8873;48.818;9.422;2022-08-01T08:27:33;3.30;;;2.10;;
17510;SDS011;8873;48.818;9.422;2022-08-01T08:30:03;2.38;;;2.08;;
17510;SDS011;8873;48.818;9.422;2022-08-01T08:32:33;3.22;;;2.05;;
17510;SDS011;8873;48.818;9.422;2022-08-01T08:35:02;3.83;;;2.10;;
17510;SDS011;8873;48.818;9.422;2022-08-01T08:37:32;2.90;;;1.92;;
17510;SDS011;8873;48.818;9.422;2022-08-01T08:40:05;3.05;;;1.83;;
17510;SDS011;8873;48.818;9.422;2022-08-01T08:42:33;4.75;;;2.00;;
17510;SDS011;8873;48.818;9.422;2022-08-01T08:45:01;2.08;;;1.98;;
17510;SDS011;8873;48.818;9.422;2022-08-01T08:47:29;2.38;;;2.17;;
17510;SDS011;8873;48.818;9.422;2022-08-01T08:49:58;11.40;;;2.63;;
17510;SDS011;8873;48.818;9.422;2022-08-01T08:52:28;3.83;;;2.33;;
17510;SDS011;8873;48.818;9.422;2022-08-01T08:54:56;2.58;;;2.15;;
17510;SDS011;8873;48.818;9.422;2022-08-01T08:57:25;4.00;;;2.15;;
17510;SDS011;8873;48.818;9.422;2022-08-01T08:59:53;2.63;;;2.20;;
17510;SDS011;8873;48.818;9.422;2022-08-01T09:02:21;2.30;;;2.10;;
17510;SDS011;8873;48.818;9.422;2022-08-01T09:04:49;2.50;;;2.30;;
17510;SDS011;8873;48.818;9.422;2022-08-01T09:07:17;2.20;;;2.05;;
17510;SDS011;8873;48.818;9.422;2022-08-01T09:09:46;3.42;;;2.08;;
17510;SDS011;8873;48.818;9.422;2022-08-01T09:12:17;6.10;;;2.13;;
17510;SDS011;8873;48.818;9.422;2022-08-01T09:14:46;2.83;;;2.10;;
17510;SDS011;8873;48.818;9.422;2022-08-01T09:17:16;2.20;;;2.10;;
17510;SDS011;8873;48.818;9.422;2022-08-01T09:19:44;4.72;;;2.25;;
17510;SDS011;8873;48.818;9.422;2022-08-01T09:22:15;2.63;;;2.28;;
17510;SDS011;8873;48.818;9.422;2022-08-01T09:24:57;10.38;;;2.90;;
17510;SDS011;8873;48.818;9.422;2022-08-01T09:27:26;2.30;;;2.00;;
17510;SDS011;8873;48.818;9.422;2022-08-01T09:29:54;4.97;;;2.05;;
17510;SDS011;8873;48.818;9.422;2022-08-01T09:32:29;8.18;;;2.70;;
17510;SDS011;8873;48.818;9.422;2022-08-01T09:35:21;3.42;;;2.33;;
17510;SDS011;8873;48.818;9.422;2022-08-01T09:40:47;2.30;;;2.08;;
17510;SDS011;8873;48.818;9.422;2022-08-01T09:43:15;3.10;;;2.05;;
17510;SDS011;8873;48.818;9.422;2022-08-01T09:45:44;3.25;;;2.70;;
17510;SDS011;8873;48.818;9.422;2022-08-01T09:48:18;2.58;;;2.47;;
17510;SDS011;8873;48.818;9.422;2022-08-01T09:50:53;3.53;;;2.65;;
17510;SDS011;8873;48.818;9.422;2022-08-01T09:53:39;3.80;;;3.00;;
17510;SDS011;8873;48.818;9.422;2022-08-01T09:56:12;2.72;;;2.60;;
17510;SDS011;8873;48.818;9.422;2022-08-01T09:58:49;6.10;;;2.60;;
17510;SDS011;8873;48.818;9.422;2022-08-01T10:01:24;3.60;;;2.75;;
17510;SDS011;8873;48.818;9.422;2022-08-01T10:04:05;4.22;;;2.70;;
17510;SDS011;8873;48.818;9.422;2022-08-01T10:06:35;8.60;;;2.75;;
17510;SDS011;8873;48.818;9.422;2022-08-01T10:09:03;3.25;;;2.95;;
17510;SDS011;8873;48.818;9.422;2022-08-01T10:11:33;4.55;;;3.38;;
17510;SDS011;8873;48.818;9.422;2022-08-01T10:14:04;3.60;;;3.30;;
17510;SDS011;8873;48.818;9.422;2022-08-01T10:16:34;3.47;;;3.17;;
17510;SDS011;8873;48.818;9.422;2022-08-01T10:19:05;3.70;;;3.40;;
17510;SDS011;8873;48.818;9.422;2022-08-01T10:21:40;7.25;;;3.47;;
17510;SDS011;8873;48.818;9.422;2022-08-01T10:24:24;6.50;;;3.42;;
17510;SDS011;8873;48.818;9.422;2022-08-01T10:26:54;6.47;;;3.30;;
17510;SDS011;8873;48.818;9.422;2022-08-01T10:29:25;6.57;;;3.20;;
17510;SDS011;8873;48.818;9.422;2022-08-01T10:32:13;8.40;;;3.38;;
17510;SDS011;8873;48.818;9.422;2022-08-01T10:34:42;5.70;;;3.40;;
17510;SDS011;8873;48.818;9.422;2022-08-01T10:37:10;7.47;;;3.30;;
17510;SDS011;8873;48.818;9.422;2022-08-01T10:39:39;3.40;;;2.83;;
17510;SDS011;8873;48.818;9.422;2022-08-01T10:42:09;4.18;;;2.97;;
17510;SDS011;8873;48.818;9.422;2022-08-01T10:44:41;3.22;;;3.03;;
17510;SDS011;8873;48.818;9.422;2022-08-01T10:47:15;4.07;;;2.95;;
17510;SDS011;8873;48.818;9.422;2022-08-01T10:49:53;3.53;;;2.70;;
17510;SDS011;8873;48.818;9.422;2022-08-01T10:52:25;3.63;;;3.33;;
17510;SDS011;8873;48.818;9.422;2022-08-01T10:55:01;3.10;;;2.80;;
17510;SDS011;8873;48.818;9.422;2022-08-01T10:57:42;3.05;;;2.75;;
17510;SDS011;8873;48.818;9.422;2022-08-01T11:00:18;4.03;;;2.60;;
17510;SDS011;8873;48.818;9.422;2022-08-01T11:02:57;2.88;;;2.50;;
17510;SDS011;8873;48.818;9.422;2022-08-01T11:05:27;2.50;;;2.30;;
17510;SDS011;8873;48.818;9.422;2022-08-01T11:07:59;5.13;;;2.97;;
17510;SDS011;8873;48.818;9.422;2022-08-01T11:10:30;4.78;;;2.63;;
17510;SDS011;8873;48.818;9.422;2022-08-01T11:13:01;3.15;;;2.83;;
17510;SDS011;8873;48.818;9.422;2022-08-01T11:15:31;12.57;;;3.80;;
17510;SDS011;8873;48.818;9.422;2022-08-01T11:18:00;4.50;;;3.70;;
17510;SDS011;8873;48.818;9.422;2022-08-01T11:20:30;4.38;;;3.03;;
17510;SDS011;8873;48.818;9.422;2022-08-01T11:28:40;9.27;;;3.20;;
17510;SDS011;8873;48.818;9.422;2022-08-01T11:31:32;4.07;;;2.72;;
17510;SDS011;8873;48.818;9.422;2022-08-01T11:34:03;2.90;;;2.70;;
17510;SDS011;8873;48.818;9.422;2022-08-01T11:36:31;4.03;;;2.80;;
17510;SDS011;8873;48.818;9.422;2022-08-01T11:39:19;4.78;;;2.30;;
17510;SDS011;8873;48.818;9.422;2022-08-01T11:41:47;2.40;;;2.30;;
17510;SDS011;8873;48.818;9.422;2022-08-01T11:44:18;3.08;;;2.47;;
17510;SDS011;8873;48.818;9.422;2022-08-01T11:46:55;2.80;;;2.50;;
17510;SDS011;8873;48.818;9.422;2022-08-01T11:49:32;2.58;;;2.47;;
17510;SDS011;8873;48.818;9.422;2022-08-01T11:52:04;3.55;;;2.53;;
17510;SDS011;8873;48.818;9.422;2022-08-01T11:54:34;5.53;;;2.80;;
17510;SDS011;8873;48.818;9.422;2022-08-01T11:57:03;2.83;;;2.65;;
17510;SDS011;8873;48.818;9.422;2022-08-01T12:02:30;4.15;;;2.72;;
17510;SDS011;8873;48.818;9.422;2022-08-01T12:04:59;5.03;;;2.30;;
17510;SDS011;8873;48.818;9.422;2022-08-01T12:07:28;3.72;;;2.45;;
17510;SDS011;8873;48.818;9.422;2022-08-01T12:09:59;3.35;;;2.40;;
17510;SDS011;8873;48.818;9.422;2022-08-01T12:12:29;2.75;;;2.45;;
17510;SDS011;8873;48.818;9.422;2022-08-01T12:15:03;2.67;;;2.58;;
17510;SDS011;8873;48.818;9.422;2022-08-01T12:17:38;2.30;;;2.20;;
17510;SDS011;8873;48.818;9.422;2022-08-01T12:20:23;4.03;;;2.22;;
17510;SDS011;8873;48.818;9.422;2022-08-01T12:22:56;3.45;;;2.80;;
17510;SDS011;8873;48.818;9.422;2022-08-01T12:25:25;2.72;;;2.53;;
17510;SDS011;8873;48.818;9.422;2022-08-01T12:27:53;5.63;;;2.58;;
17510;SDS011;8873;48.818;9.422;2022-08-01T12:30:23;2.35;;;2.20;;
17510;SDS011;8873;48.818;9.422;2022-08-01T12:33:11;3.17;;;2.10;;
17510;SDS011;8873;48.818;9.422;2022-08-01T12:35:45;2.72;;;2.28;;
17510;SDS011;8873;48.818;9.422;2022-08-01T12:38:13;2.25;;;2.08;;
17510;SDS011;8873;48.818;9.422;2022-08-01T12:40:42;2.38;;;2.28;;
17510;SDS011;8873;48.818;9.422;2022-08-01T12:43:15;2.20;;;2.10;;
17510;SDS011;8873;48.818;9.422;2022-08-01T12:45:54;2.75;;;2.40;;
17510;SDS011;8873;48.818;9.422;2022-08-01T12:48:24;8.52;;;2.75;;
17510;SDS011;8873;48.818;9.422;2022-08-01T12:50:52;2.40;;;2.20;;
17510;SDS011;8873;48.818;9.422;2022-08-01T12:53:22;2.40;;;2.22;;
17510;SDS011;8873;48.818;9.422;2022-08-01T12:55:53;2.45;;;2.33;;
17510;SDS011;8873;48.818;9.422;2022-08-01T12:58:30;5.75;;;2.22;;
17510;SDS011;8873;48.818;9.422;2022-08-01T13:01:02;3.72;;;2.10;;
17510;SDS011;8873;48.818;9.422;2022-08-01T13:03:31;2.20;;;2.10;;
17510;SDS011;8873;48.818;9.422;2022-08-01T13:05:59;2.22;;;2.13;;
17510;SDS011;8873;48.818;9.422;2022-08-01T13:08:29;1.90;;;1.77;;
17510;SDS011;8873;48.818;9.422;2022-08-01T13:11:01;2.45;;;2.25;;
17510;SDS011;8873;48.818;9.422;2022-08-01T13:13:37;2.25;;;2.15;;
17510;SDS011;8873;48.818;9.422;2022-08-01T13:16:05;2.55;;;2.00;;
17510;SDS011;8873;48.818;9.422;2022-08-01T13:18:42;2.03;;;1.92;;
17510;SDS011;8873;48.818;9.422;2022-08-01T13:21:16;2.22;;;2.05;;
17510;SDS011;8873;48.818;9.422;2022-08-01T13:23:59;2.15;;;2.05;;
17510;SDS011;8873;48.818;9.422;2022-08-01T13:26:42;5.05;;;2.30;;
17510;SDS011;8873;48.818;9.422;2022-08-01T13:29:10;3.28;;;2.28;;
17510;SDS011;8873;48.818;9.422;2022-08-01T13:31:39;3.63;;;2.20;;
17510;SDS011;8873;48.818;9.422;2022-08-01T13:34:08;2.35;;;2.25;;
17510;SDS011;8873;48.818;9.422;2022-08-01T13:36:36;2.83;;;2.00;;
17510;SDS011;8873;48.818;9.422;2022-08-01T13:39:04;4.40;;;2.47;;
17510;SDS011;8873;48.818;9.422;2022-08-01T13:41:52;2.25;;;2.05;;
17510;SDS011;8873;48.818;9.422;2022-08-01T13:44:20;2.17;;;2.08;;
17510;SDS011;8873;48.818;9.422;2022-08-01T13:46:47;2.47;;;2.25;;
17510;SDS011;8873;48.818;9.422;2022-08-01T13:49:18;1.90;;;1.80;;
17510;SDS011;8873;48.818;9.422;2022-08-01T13:51:48;1.98;;;1.88;;
17510;SDS011;8873;48.818;9.422;2022-08-01T13:54:17;2.47;;;2.10;;
17510;SDS011;8873;48.818;9.422;2022-08-01T13:56:45;2.10;;;2.00;;
17510;SDS011;8873;48.818;9.422;2022-08-01T13:59:12;2.33;;;1.80;;
17510;SDS011;8873;48.818;9.422;2022-08-01T14:01:41;5.45;;;2.05;;
17510;SDS011;8873;48.818;9.422;2022-08-01T14:04:09;1.90;;;1.80;;
17510;SDS011;8873;48.818;9.422;2022-08-01T14:06:38;3.10;;;2.00;;
17510;SDS011;8873;48.818;9.422;2022-08-01T14:09:07;2.10;;;2.00;;
17510;SDS011;8873;48.818;9.422;2022-08-01T14:11:43;7.45;;;2.00;;
17510;SDS011;8873;48.818;9.422;2022-08-01T14:14:11;2.50;;;2.30;;
17510;SDS011;8873;48.818;9.422;2022-08-01T14:16:39;2.00;;;1.90;;
17510;SDS011;8873;48.818;9.422;2022-08-01T14:19:07;3.15;;;1.98;;
17510;SDS011;8873;48.818;9.422;2022-08-01T14:21:34;5.45;;;2.10;;
17510;SDS011;8873;48.818;9.422;2022-08-01T14:24:04;2.40;;;2.20;;
17510;SDS011;8873;48.818;9.422;2022-08-01T14:26:33;2.08;;;1.95;;
17510;SDS011;8873;48.818;9.422;2022-08-01T14:29:01;1.90;;;1.80;;
17510;SDS011;8873;48.818;9.422;2022-08-01T14:31:29;2.05;;;1.80;;
17510;SDS011;8873;48.818;9.422;2022-08-01T14:33:59;3.42;;;2.35;;
17510;SDS011;8873;48.818;9.422;2022-08-01T14:36:27;2.08;;;1.98;;
17510;SDS011;8873;48.818;9.422;2022-08-01T14:38:57;2.08;;;1.98;;
17510;SDS011;8873;48.818;9.422;2022-08-01T14:41:27;1.80;;;1.80;;
17510;SDS011;8873;48.818;9.422;2022-08-01T14:43:56;2.25;;;2.00;;
17510;SDS011;8873;48.818;9.422;2022-08-01T14:46:24;2.45;;;1.92;;
17510;SDS011;8873;48.818;9.422;2022-08-01T14:48:52;3.05;;;2.13;;
17510;SDS011;8873;48.818;9.422;2022-08-01T14:51:20;3.22;;;2.30;;
17510;SDS011;8873;48.818;9.422;2022-08-01T14:53:48;3.15;;;2.08;;
17510;SDS011;8873;48.818;9.422;2022-08-01T14:56:18;6.40;;;2.03;;
17510;SDS011;8873;48.818;9.422;2022-08-01T14:58:47;2.20;;;1.98;;
17510;SDS011;8873;48.818;9.422;2022-08-01T15:01:15;3.65;;;1.85;;
17510;SDS011;8873;48.818;9.422;2022-08-01T15:03:44;1.90;;;1.80;;
17510;SDS011;8873;48.818;9.422;2022-08-01T15:06:12;3.17;;;1.80;;
17510;SDS011;8873;48.818;9.422;2022-08-01T15:08:40;3.80;;;1.95;;
17510;SDS011;8873;48.818;9.422;2022-08-01T15:11:07;2.25;;;1.65;;
17510;SDS011;8873;48.818;9.422;2022-08-01T15:13:35;2.10;;;2.00;;
17510;SDS011;8873;48.818;9.422;2022-08-01T15:16:09;2.30;;;2.10;;
17510;SDS011;8873;48.818;9.422;2022-08-01T15:18:37;2.30;;;2.20;;
17510;SDS011;8873;48.818;9.422;2022-08-01T15:21:05;2.17;;;1.88;;
17510;SDS011;8873;48.818;9.422;2022-08-01T15:23:32;3.40;;;2.00;;
17510;SDS011;8873;48.818;9.422;2022-08-01T15:26:01;3.08;;;2.03;;
17510;SDS011;8873;48.818;9.422;2022-08-01T15:28:29;2.10;;;1.90;;
17510;SDS011;8873;48.818;9.422;2022-08-01T15:30:57;2.30;;;2.08;;